sensor_id;sensor_type;location;lat;lon;timestamp;temperature;humidity
29813;DHT22;16707;48.106;11.548;2023-03-30T00:01:22;10.30;99.90
29813;DHT22;16707;48.106;11.548;2023-03-30T00:03:49;10.40;99.90
29813;DHT22;16707;48.106;11.548;2023-03-30T00:06:29;10.40;99.90
29813;DHT22;16707;48.106;11.548;2023-03-30T00:08:58;10.50;99.90
29813;DHT22;16707;48.106;11.548;2023-03-30T00:11:26;10.40;99.90
29813;DHT22;16707;48.106;11.548;2023-03-30T00:13:59;10.40;99.90
29813;DHT22;16707;48.106;11.548;2023-03-30T00:16:28;10.30;99.90
29813;DHT22;16707;48.106;11.548;2023-03-30T00:18:55;10.30;99.90
29813;DHT22;16707;48.106;11.548;2023-03-30T00:21:25;10.30;99.90
29813;DHT22;16707;48.106;11.548;2023-03-30T00:23:53;10.30;99.90
29813;DHT22;16707;48.106;11.548;2023-03-30T00:26:21;10.40;99.90
29813;DHT22;16707;48.106;11.548;2023-03-30T00:28:59;10.40;99.90
29813;DHT22;16707;48.106;11.548;2023-03-30T00:31:29;10.40;99.90
29813;DHT22;16707;48.106;11.548;2023-03-30T00:34:08;10.40;99.90
29813;DHT22;16707;48.106;11.548;2023-03-30T00:36:35;10.30;99.90
29813;DHT22;16707;48.106;11.548;2023-03-30T00:39:05;10.30;99.90
29813;DHT22;16707;48.106;11.548;2023-03-30T00:41:33;10.30;99.90
29813;DHT22;16707;48.106;11.548;2023-03-30T00:44:02;10.30;99.90
29813;DHT22;16707;48.106;11.548;2023-03-30T00:46:34;10.30;99.90
29813;DHT22;16707;48.106;11.548;2023-03-30T00:49:07;10.30;99.90
29813;DHT22;16707;48.106;11.548;2023-03-30T00:51:42;10.20;99.90
29813;DHT22;16707;48.106;11.548;2023-03-30T00:54:17;10.20;99.90
29813;DHT22;16707;48.106;11.548;2023-03-30T00:56:59;10.20;99.90
29813;DHT22;16707;48.106;11.548;2023-03-30T00:59:27;10.20;99.90
29813;DHT22;16707;48.106;11.548;2023-03-30T01:01:59;10.20;99.90
29813;DHT22;16707;48.106;11.548;2023-03-30T01:04:34;10.10;99.90
29813;DHT22;16707;48.106;11.548;2023-03-30T01:07:03;10.00;99.90
29813;DHT22;16707;48.106;11.548;2023-03-30T01:09:35;10.00;99.90
29813;DHT22;16707;48.106;11.548;2023-03-30T01:12:08;10.00;99.90
29813;DHT22;16707;48.106;11.548;2023-03-30T01:14:45;9.90;99.90
29813;DHT22;16707;48.106;11.548;2023-03-30T01:17:23;9.90;99.90
29813;DHT22;16707;48.106;11.548;2023-03-30T01:20:26;9.90;99.90
29813;DHT22;16707;48.106;11.548;2023-03-30T01:26:27;10.00;99.90
29813;DHT22;16707;48.106;11.548;2023-03-30T01:29:01;10.00;99.90
29813;DHT22;16707;48.106;11.548;2023-03-30T01:31:51;9.90;99.90
29813;DHT22;16707;48.106;11.548;2023-03-30T01:34:52;10.10;99.90
29813;DHT22;16707;48.106;11.548;2023-03-30T01:38:07;10.30;99.90
29813;DHT22;16707;48.106;11.548;2023-03-30T01:40:39;10.50;99.90
29813;DHT22;16707;48.106;11.548;2023-03-30T01:43:15;10.60;99.90
29813;DHT22;16707;48.106;11.548;2023-03-30T01:45:46;10.70;99.90
29813;DHT22;16707;48.106;11.548;2023-03-30T01:48:21;10.70;99.90
29813;DHT22;16707;48.106;11.548;2023-03-30T01:51:05;10.70;99.90
29813;DHT22;16707;48.106;11.548;2023-03-30T01:53:41;10.80;99.90
29813;DHT22;16707;48.106;11.548;2023-03-30T01:56:14;10.80;99.90
29813;DHT22;16707;48.106;11.548;2023-03-30T01:59:24;10.70;99.90
29813;DHT22;16707;48.106;11.548;2023-03-30T02:01:56;10.70;99.90
29813;DHT22;16707;48.106;11.548;2023-03-30T02:04:29;10.70;99.90
29813;DHT22;16707;48.106;11.548;2023-03-30T02:07:05;10.70;99.90
29813;DHT22;16707;48.106;11.548;2023-03-30T02:09:36;10.70;99.90
29813;DHT22;16707;48.106;11.548;2023-03-30T02:12:10;10.70;99.90
29813;DHT22;16707;48.106;11.548;2023-03-30T02:14:41;10.70;99.90
29813;DHT22;16707;48.106;11.548;2023-03-30T02:17:17;10.70;99.90
29813;DHT22;16707;48.106;11.548;2023-03-30T02:20:01;10.70;99.90
29813;DHT22;16707;48.106;11.548;2023-03-30T02:23:00;10.80;99.90
29813;DHT22;16707;48.106;11.548;2023-03-30T02:25:34;10.90;99.90
29813;DHT22;16707;48.106;11.548;2023-03-30T02:28:12;11.10;99.90
29813;DHT22;16707;48.106;11.548;2023-03-30T02:30:46;11.20;99.90
29813;DHT22;16707;48.106;11.548;2023-03-30T02:33:22;11.30;99.90
29813;DHT22;16707;48.106;11.548;2023-03-30T02:36:18;11.40;99.90
29813;DHT22;16707;48.106;11.548;2023-03-30T02:39:16;11.40;99.80
29813;DHT22;16707;48.106;11.548;2023-03-30T02:45:13;11.70;99.50
29813;DHT22;16707;48.106;11.548;2023-03-30T02:47:57;11.80;99.80
29813;DHT22;16707;48.106;11.548;2023-03-30T02:50:36;11.90;99.80
29813;DHT22;16707;48.106;11.548;2023-03-30T02:53:23;11.90;99.90
29813;DHT22;16707;48.106;11.548;2023-03-30T02:56:00;12.00;99.90
29813;DHT22;16707;48.106;11.548;2023-03-30T02:58:33;12.00;99.90
29813;DHT22;16707;48.106;11.548;2023-03-30T03:01:13;12.00;99.90
29813;DHT22;16707;48.106;11.548;2023-03-30T03:03:44;12.20;99.90
29813;DHT22;16707;48.106;11.548;2023-03-30T03:06:30;12.20;99.90
29813;DHT22;16707;48.106;11.548;2023-03-30T03:09:15;12.10;99.90
29813;DHT22;16707;48.106;11.548;2023-03-30T03:11:45;12.10;99.90
29813;DHT22;16707;48.106;11.548;2023-03-30T03:14:21;12.10;99.90
29813;DHT22;16707;48.106;11.548;2023-03-30T03:16:56;12.10;99.90
29813;DHT22;16707;48.106;11.548;2023-03-30T03:19:26;12.20;99.90
29813;DHT22;16707;48.106;11.548;2023-03-30T03:21:57;12.10;99.90
29813;DHT22;16707;48.106;11.548;2023-03-30T03:24:34;12.30;99.90
29813;DHT22;16707;48.106;11.548;2023-03-30T03:27:06;12.30;99.90
29813;DHT22;16707;48.106;11.548;2023-03-30T03:29:45;12.30;99.90
29813;DHT22;16707;48.106;11.548;2023-03-30T03:32:18;12.40;99.90
29813;DHT22;16707;48.106;11.548;2023-03-30T03:34:45;12.40;99.90
29813;DHT22;16707;48.106;11.548;2023-03-30T03:37:17;12.30;99.90
29813;DHT22;16707;48.106;11.548;2023-03-30T03:39:52;12.30;99.90
29813;DHT22;16707;48.106;11.548;2023-03-30T03:42:22;12.20;99.90
29813;DHT22;16707;48.106;11.548;2023-03-30T03:44:50;12.10;99.90
29813;DHT22;16707;48.106;11.548;2023-03-30T03:47:24;12.00;99.90
29813;DHT22;16707;48.106;11.548;2023-03-30T03:49:56;11.90;99.90
29813;DHT22;16707;48.106;11.548;2023-03-30T03:52:41;11.80;99.90
29813;DHT22;16707;48.106;11.548;2023-03-30T03:55:25;11.80;99.90
29813;DHT22;16707;48.106;11.548;2023-03-30T03:57:55;11.70;99.90
29813;DHT22;16707;48.106;11.548;2023-03-30T04:00:31;11.60;99.90
29813;DHT22;16707;48.106;11.548;2023-03-30T04:03:04;11.60;99.90
29813;DHT22;16707;48.106;11.548;2023-03-30T04:05:40;11.50;99.90
29813;DHT22;16707;48.106;11.548;2023-03-30T04:08:11;11.50;99.90
29813;DHT22;16707;48.106;11.548;2023-03-30T04:10:44;11.50;99.90
29813;DHT22;16707;48.106;11.548;2023-03-30T04:13:11;11.50;99.90
29813;DHT22;16707;48.106;11.548;2023-03-30T04:15:39;11.50;99.90
29813;DHT22;16707;48.106;11.548;2023-03-30T04:18:18;11.50;99.90
29813;DHT22;16707;48.106;11.548;2023-03-30T04:20:46;11.70;99.90
29813;DHT22;16707;48.106;11.548;2023-03-30T04:23:16;11.60;99.90
29813;DHT22;16707;48.106;11.548;2023-03-30T04:25:46;11.50;99.90
29813;DHT22;16707;48.106;11.548;2023-03-30T04:28:16;11.30;99.90
29813;DHT22;16707;48.106;11.548;2023-03-30T04:30:58;11.20;99.90
29813;DHT22;16707;48.106;11.548;2023-03-30T04:33:41;11.20;99.90
29813;DHT22;16707;48.106;11.548;2023-03-30T04:36:15;11.30;99.90
29813;DHT22;16707;48.106;11.548;2023-03-30T04:38:47;11.30;99.90
29813;DHT22;16707;48.106;11.548;2023-03-30T04:41:33;11.30;99.90
29813;DHT22;16707;48.106;11.548;2023-03-30T04:44:08;11.30;99.90
29813;DHT22;16707;48.106;11.548;2023-03-30T04:46:42;11.30;99.90
29813;DHT22;16707;48.106;11.548;2023-03-30T04:49:16;11.30;99.90
29813;DHT22;16707;48.106;11.548;2023-03-30T04:51:51;11.30;99.90
29813;DHT22;16707;48.106;11.548;2023-03-30T04:54:32;11.30;99.90
29813;DHT22;16707;48.106;11.548;2023-03-30T04:56:59;11.40;99.90
29813;DHT22;16707;48.106;11.548;2023-03-30T04:59:27;11.40;99.90
29813;DHT22;16707;48.106;11.548;2023-03-30T05:01:58;11.50;99.90
29813;DHT22;16707;48.106;11.548;2023-03-30T05:04:26;11.40;99.90
29813;DHT22;16707;48.106;11.548;2023-03-30T05:06:56;11.50;99.90
29813;DHT22;16707;48.106;11.548;2023-03-30T05:09:27;11.40;99.90
29813;DHT22;16707;48.106;11.548;2023-03-30T05:12:00;11.50;99.90
29813;DHT22;16707;48.106;11.548;2023-03-30T05:14:29;11.40;99.90
29813;DHT22;16707;48.106;11.548;2023-03-30T05:17:00;11.40;99.90
29813;DHT22;16707;48.106;11.548;2023-03-30T05:19:28;11.40;99.90
29813;DHT22;16707;48.106;11.548;2023-03-30T05:21:55;11.40;99.90
29813;DHT22;16707;48.106;11.548;2023-03-30T05:24:35;11.40;99.90
29813;DHT22;16707;48.106;11.548;2023-03-30T05:27:08;11.50;99.90
29813;DHT22;16707;48.106;11.548;2023-03-30T05:29:36;11.50;99.90
29813;DHT22;16707;48.106;11.548;2023-03-30T05:32:03;11.60;99.90
29813;DHT22;16707;48.106;11.548;2023-03-30T05:34:35;11.40;99.90
29813;DHT22;16707;48.106;11.548;2023-03-30T05:37:02;11.30;99.90
29813;DHT22;16707;48.106;11.548;2023-03-30T05:39:29;11.40;99.90
29813;DHT22;16707;48.106;11.548;2023-03-30T05:41:56;11.30;99.90
29813;DHT22;16707;48.106;11.548;2023-03-30T05:44:23;11.20;99.90
29813;DHT22;16707;48.106;11.548;2023-03-30T05:46:50;11.30;99.90
29813;DHT22;16707;48.106;11.548;2023-03-30T05:49:20;11.40;99.90
29813;DHT22;16707;48.106;11.548;2023-03-30T05:51:48;11.40;99.90
29813;DHT22;16707;48.106;11.548;2023-03-30T05:54:20;11.40;99.90
29813;DHT22;16707;48.106;11.548;2023-03-30T05:56:47;11.50;99.90
29813;DHT22;16707;48.106;11.548;2023-03-30T05:59:14;11.60;99.90
29813;DHT22;16707;48.106;11.548;2023-03-30T06:01:44;11.70;99.90
29813;DHT22;16707;48.106;11.548;2023-03-30T06:04:20;11.70;99.90
29813;DHT22;16707;48.106;11.548;2023-03-30T06:06:48;11.90;99.90
29813;DHT22;16707;48.106;11.548;2023-03-30T06:09:16;12.00;99.90
29813;DHT22;16707;48.106;11.548;2023-03-30T06:11:48;12.00;99.90
29813;DHT22;16707;48.106;11.548;2023-03-30T06:14:16;11.90;99.90
29813;DHT22;16707;48.106;11.548;2023-03-30T06:16:43;11.90;99.90
29813;DHT22;16707;48.106;11.548;2023-03-30T06:19:10;12.00;99.90
29813;DHT22;16707;48.106;11.548;2023-03-30T06:21:39;12.10;99.90
29813;DHT22;16707;48.106;11.548;2023-03-30T06:24:07;12.10;99.90
29813;DHT22;16707;48.106;11.548;2023-03-30T06:26:40;12.10;99.90
29813;DHT22;16707;48.106;11.548;2023-03-30T06:29:09;12.10;99.90
29813;DHT22;16707;48.106;11.548;2023-03-30T06:31:39;12.20;99.90
29813;DHT22;16707;48.106;11.548;2023-03-30T06:34:06;12.40;99.90
29813;DHT22;16707;48.106;11.548;2023-03-30T06:36:36;12.40;99.90
29813;DHT22;16707;48.106;11.548;2023-03-30T06:39:06;12.40;99.90
29813;DHT22;16707;48.106;11.548;2023-03-30T06:41:48;12.40;99.90
29813;DHT22;16707;48.106;11.548;2023-03-30T06:44:15;12.40;99.90
29813;DHT22;16707;48.106;11.548;2023-03-30T06:46:42;12.30;99.90
29813;DHT22;16707;48.106;11.548;2023-03-30T06:49:13;12.50;99.90
29813;DHT22;16707;48.106;11.548;2023-03-30T06:51:40;12.60;99.90
29813;DHT22;16707;48.106;11.548;2023-03-30T06:54:08;12.70;99.90
29813;DHT22;16707;48.106;11.548;2023-03-30T06:56:35;12.80;99.90
29813;DHT22;16707;48.106;11.548;2023-03-30T06:59:05;12.80;99.90
29813;DHT22;16707;48.106;11.548;2023-03-30T07:01:32;12.80;99.90
29813;DHT22;16707;48.106;11.548;2023-03-30T07:04:02;12.70;99.90
29813;DHT22;16707;48.106;11.548;2023-03-30T07:06:29;12.70;99.90
29813;DHT22;16707;48.106;11.548;2023-03-30T07:08:56;12.60;99.90
29813;DHT22;16707;48.106;11.548;2023-03-30T07:11:30;12.70;99.90
29813;DHT22;16707;48.106;11.548;2023-03-30T07:13:57;12.80;99.90
29813;DHT22;16707;48.106;11.548;2023-03-30T07:16:25;12.90;99.90
29813;DHT22;16707;48.106;11.548;2023-03-30T07:18:53;13.10;99.90
29813;DHT22;16707;48.106;11.548;2023-03-30T07:21:20;13.40;99.90
29813;DHT22;16707;48.106;11.548;2023-03-30T07:23:47;13.60;99.90
29813;DHT22;16707;48.106;11.548;2023-03-30T07:26:15;13.70;99.90
29813;DHT22;16707;48.106;11.548;2023-03-30T07:28:46;13.90;99.90
29813;DHT22;16707;48.106;11.548;2023-03-30T07:31:17;14.10;99.90
29813;DHT22;16707;48.106;11.548;2023-03-30T07:33:46;14.40;99.90
29813;DHT22;16707;48.106;11.548;2023-03-30T07:36:14;14.50;99.90
29813;DHT22;16707;48.106;11.548;2023-03-30T07:38:41;14.50;99.90
29813;DHT22;16707;48.106;11.548;2023-03-30T07:41:09;14.30;99.90
29813;DHT22;16707;48.106;11.548;2023-03-30T07:43:39;14.30;99.90
29813;DHT22;16707;48.106;11.548;2023-03-30T07:46:08;14.30;99.90
29813;DHT22;16707;48.106;11.548;2023-03-30T07:48:37;14.20;99.90
29813;DHT22;16707;48.106;11.548;2023-03-30T07:51:08;14.20;99.90
29813;DHT22;16707;48.106;11.548;2023-03-30T07:53:39;14.30;99.90
29813;DHT22;16707;48.106;11.548;2023-03-30T07:56:06;14.40;99.90
29813;DHT22;16707;48.106;11.548;2023-03-30T07:58:33;14.60;99.90
29813;DHT22;16707;48.106;11.548;2023-03-30T08:01:01;14.50;99.90
29813;DHT22;16707;48.106;11.548;2023-03-30T08:03:31;14.30;99.90
29813;DHT22;16707;48.106;11.548;2023-03-30T08:06:01;14.30;99.90
29813;DHT22;16707;48.106;11.548;2023-03-30T08:08:33;14.50;99.90
29813;DHT22;16707;48.106;11.548;2023-03-30T08:11:03;14.50;99.90
29813;DHT22;16707;48.106;11.548;2023-03-30T08:13:31;14.70;99.90
29813;DHT22;16707;48.106;11.548;2023-03-30T08:15:58;14.80;99.90
29813;DHT22;16707;48.106;11.548;2023-03-30T08:18:30;14.90;99.90
29813;DHT22;16707;48.106;11.548;2023-03-30T08:20:58;15.00;99.90
29813;DHT22;16707;48.106;11.548;2023-03-30T08:23:25;15.10;99.90
29813;DHT22;16707;48.106;11.548;2023-03-30T08:25:55;15.40;99.90
29813;DHT22;16707;48.106;11.548;2023-03-30T08:28:22;15.60;99.90
29813;DHT22;16707;48.106;11.548;2023-03-30T08:30:50;15.60;99.90
29813;DHT22;16707;48.106;11.548;2023-03-30T08:33:19;15.80;99.90
29813;DHT22;16707;48.106;11.548;2023-03-30T08:35:49;15.90;99.90
29813;DHT22;16707;48.106;11.548;2023-03-30T08:38:18;16.50;99.90
29813;DHT22;16707;48.106;11.548;2023-03-30T08:40:47;16.90;99.90
29813;DHT22;16707;48.106;11.548;2023-03-30T08:43:24;16.80;99.80
29813;DHT22;16707;48.106;11.548;2023-03-30T08:45:58;16.40;99.90
29813;DHT22;16707;48.106;11.548;2023-03-30T08:48:28;16.30;99.90
29813;DHT22;16707;48.106;11.548;2023-03-30T08:51:13;16.10;99.90
29813;DHT22;16707;48.106;11.548;2023-03-30T08:53:45;15.90;99.90
29813;DHT22;16707;48.106;11.548;2023-03-30T08:56:15;15.80;99.90
29813;DHT22;16707;48.106;11.548;2023-03-30T08:58:54;15.80;99.90
29813;DHT22;16707;48.106;11.548;2023-03-30T09:01:29;15.80;99.90
29813;DHT22;16707;48.106;11.548;2023-03-30T09:04:16;16.00;99.90
29813;DHT22;16707;48.106;11.548;2023-03-30T09:06:50;16.30;99.90
29813;DHT22;16707;48.106;11.548;2023-03-30T09:09:20;16.30;99.90
29813;DHT22;16707;48.106;11.548;2023-03-30T09:11:52;16.50;99.90
29813;DHT22;16707;48.106;11.548;2023-03-30T09:14:28;16.60;99.90
29813;DHT22;16707;48.106;11.548;2023-03-30T09:17:05;16.60;99.90
29813;DHT22;16707;48.106;11.548;2023-03-30T09:19:45;16.90;99.60
29813;DHT22;16707;48.106;11.548;2023-03-30T09:22:20;16.90;99.40
29813;DHT22;16707;48.106;11.548;2023-03-30T09:24:48;17.00;99.50
29813;DHT22;16707;48.106;11.548;2023-03-30T09:27:33;16.90;99.10
29813;DHT22;16707;48.106;11.548;2023-03-30T09:30:15;17.00;98.70
29813;DHT22;16707;48.106;11.548;2023-03-30T09:32:53;17.30;97.20
29813;DHT22;16707;48.106;11.548;2023-03-30T09:35:28;17.50;97.00
29813;DHT22;16707;48.106;11.548;2023-03-30T09:38:02;17.50;95.10
29813;DHT22;16707;48.106;11.548;2023-03-30T09:40:44;17.70;93.70
29813;DHT22;16707;48.106;11.548;2023-03-30T09:43:30;18.10;92.80
29813;DHT22;16707;48.106;11.548;2023-03-30T09:46:01;18.30;92.50
29813;DHT22;16707;48.106;11.548;2023-03-30T09:48:37;18.30;91.90
29813;DHT22;16707;48.106;11.548;2023-03-30T09:51:14;18.50;91.40
29813;DHT22;16707;48.106;11.548;2023-03-30T09:53:46;18.60;90.60
29813;DHT22;16707;48.106;11.548;2023-03-30T09:56:26;18.70;90.20
29813;DHT22;16707;48.106;11.548;2023-03-30T09:58:55;18.70;88.20
29813;DHT22;16707;48.106;11.548;2023-03-30T10:01:34;18.40;88.00
29813;DHT22;16707;48.106;11.548;2023-03-30T10:04:07;18.40;89.60
29813;DHT22;16707;48.106;11.548;2023-03-30T10:06:37;18.50;88.80
29813;DHT22;16707;48.106;11.548;2023-03-30T10:09:13;18.40;85.20
29813;DHT22;16707;48.106;11.548;2023-03-30T10:11:46;18.20;86.60
29813;DHT22;16707;48.106;11.548;2023-03-30T10:14:26;18.00;87.20
29813;DHT22;16707;48.106;11.548;2023-03-30T10:16:56;17.90;90.00
29813;DHT22;16707;48.106;11.548;2023-03-30T10:19:24;18.10;89.50
29813;DHT22;16707;48.106;11.548;2023-03-30T10:21:53;18.20;88.30
29813;DHT22;16707;48.106;11.548;2023-03-30T10:24:27;18.50;87.60
29813;DHT22;16707;48.106;11.548;2023-03-30T10:26:57;18.70;87.70
29813;DHT22;16707;48.106;11.548;2023-03-30T10:29:33;19.00;84.10
29813;DHT22;16707;48.106;11.548;2023-03-30T10:32:07;19.30;82.30
29813;DHT22;16707;48.106;11.548;2023-03-30T10:34:37;19.30;80.20
29813;DHT22;16707;48.106;11.548;2023-03-30T10:37:09;19.40;79.60
29813;DHT22;16707;48.106;11.548;2023-03-30T10:39:41;19.30;79.50
29813;DHT22;16707;48.106;11.548;2023-03-30T10:42:13;18.80;79.10
29813;DHT22;16707;48.106;11.548;2023-03-30T10:44:45;18.40;80.00
29813;DHT22;16707;48.106;11.548;2023-03-30T10:50:26;17.90;79.80
29813;DHT22;16707;48.106;11.548;2023-03-30T10:53:12;17.60;81.40
29813;DHT22;16707;48.106;11.548;2023-03-30T10:55:57;17.20;82.40
29813;DHT22;16707;48.106;11.548;2023-03-30T10:58:40;17.00;84.80
29813;DHT22;16707;48.106;11.548;2023-03-30T11:01:17;16.80;87.30
29813;DHT22;16707;48.106;11.548;2023-03-30T11:03:50;16.70;89.90
29813;DHT22;16707;48.106;11.548;2023-03-30T11:06:25;16.50;90.10
29813;DHT22;16707;48.106;11.548;2023-03-30T11:08:58;16.50;91.10
29813;DHT22;16707;48.106;11.548;2023-03-30T11:11:34;16.60;91.20
29813;DHT22;16707;48.106;11.548;2023-03-30T11:14:06;16.30;91.00
29813;DHT22;16707;48.106;11.548;2023-03-30T11:16:41;16.00;91.60
29813;DHT22;16707;48.106;11.548;2023-03-30T11:19:16;16.00;92.90
29813;DHT22;16707;48.106;11.548;2023-03-30T11:21:47;15.90;93.40
29813;DHT22;16707;48.106;11.548;2023-03-30T11:24:22;15.80;93.60
29813;DHT22;16707;48.106;11.548;2023-03-30T11:26:58;15.80;94.40
29813;DHT22;16707;48.106;11.548;2023-03-30T11:29:35;15.80;95.40
29813;DHT22;16707;48.106;11.548;2023-03-30T11:32:16;15.40;96.00
29813;DHT22;16707;48.106;11.548;2023-03-30T11:35:03;14.80;98.10
29813;DHT22;16707;48.106;11.548;2023-03-30T11:37:44;14.50;99.20
29813;DHT22;16707;48.106;11.548;2023-03-30T11:40:15;14.40;99.90
29813;DHT22;16707;48.106;11.548;2023-03-30T11:42:44;14.10;99.90
29813;DHT22;16707;48.106;11.548;2023-03-30T11:45:22;14.20;99.90
29813;DHT22;16707;48.106;11.548;2023-03-30T11:48:06;14.20;99.80
29813;DHT22;16707;48.106;11.548;2023-03-30T11:50:52;14.10;99.80
29813;DHT22;16707;48.106;11.548;2023-03-30T11:53:31;14.00;99.10
29813;DHT22;16707;48.106;11.548;2023-03-30T11:56:11;13.60;99.90
29813;DHT22;16707;48.106;11.548;2023-03-30T11:59:04;13.40;99.90
29813;DHT22;16707;48.106;11.548;2023-03-30T12:01:49;13.20;99.90
29813;DHT22;16707;48.106;11.548;2023-03-30T12:04:26;12.90;99.90
29813;DHT22;16707;48.106;11.548;2023-03-30T12:06:57;12.40;99.90
29813;DHT22;16707;48.106;11.548;2023-03-30T12:09:27;12.00;99.90
29813;DHT22;16707;48.106;11.548;2023-03-30T12:12:04;11.50;99.90
29813;DHT22;16707;48.106;11.548;2023-03-30T12:14:52;11.30;99.90
29813;DHT22;16707;48.106;11.548;2023-03-30T12:17:44;11.20;99.90
29813;DHT22;16707;48.106;11.548;2023-03-30T12:20:26;11.30;99.90
29813;DHT22;16707;48.106;11.548;2023-03-30T12:22:57;11.30;99.90
29813;DHT22;16707;48.106;11.548;2023-03-30T12:25:31;11.20;99.90
29813;DHT22;16707;48.106;11.548;2023-03-30T12:28:12;11.10;99.90
29813;DHT22;16707;48.106;11.548;2023-03-30T12:30:44;11.10;99.90
29813;DHT22;16707;48.106;11.548;2023-03-30T12:33:17;11.10;99.90
29813;DHT22;16707;48.106;11.548;2023-03-30T12:35:56;11.10;99.90
29813;DHT22;16707;48.106;11.548;2023-03-30T12:38:26;11.10;99.90
29813;DHT22;16707;48.106;11.548;2023-03-30T12:41:02;11.10;99.90
29813;DHT22;16707;48.106;11.548;2023-03-30T12:43:37;11.30;99.90
29813;DHT22;16707;48.106;11.548;2023-03-30T12:46:11;11.30;99.90
29813;DHT22;16707;48.106;11.548;2023-03-30T12:48:56;11.30;99.90
29813;DHT22;16707;48.106;11.548;2023-03-30T12:51:41;11.40;99.90
29813;DHT22;16707;48.106;11.548;2023-03-30T12:54:30;11.40;99.90
29813;DHT22;16707;48.106;11.548;2023-03-30T12:57:12;11.40;99.90
29813;DHT22;16707;48.106;11.548;2023-03-30T13:00:03;11.40;99.90
29813;DHT22;16707;48.106;11.548;2023-03-30T13:02:58;11.30;99.90
29813;DHT22;16707;48.106;11.548;2023-03-30T13:05:30;11.30;99.90
29813;DHT22;16707;48.106;11.548;2023-03-30T13:08:03;11.30;99.90
29813;DHT22;16707;48.106;11.548;2023-03-30T13:10:39;11.40;99.90
29813;DHT22;16707;48.106;11.548;2023-03-30T13:13:16;11.40;99.90
29813;DHT22;16707;48.106;11.548;2023-03-30T13:15:47;11.40;99.90
29813;DHT22;16707;48.106;11.548;2023-03-30T13:18:37;11.30;99.90
29813;DHT22;16707;48.106;11.548;2023-03-30T13:21:22;11.30;99.90
29813;DHT22;16707;48.106;11.548;2023-03-30T13:24:02;11.40;99.90
29813;DHT22;16707;48.106;11.548;2023-03-30T13:26:42;11.40;99.90
29813;DHT22;16707;48.106;11.548;2023-03-30T13:29:13;11.40;99.90
29813;DHT22;16707;48.106;11.548;2023-03-30T13:32:11;11.50;99.90
29813;DHT22;16707;48.106;11.548;2023-03-30T13:35:07;11.70;99.90
29813;DHT22;16707;48.106;11.548;2023-03-30T13:37:51;11.70;99.90
29813;DHT22;16707;48.106;11.548;2023-03-30T13:40:27;11.80;99.90
29813;DHT22;16707;48.106;11.548;2023-03-30T13:43:02;11.80;99.90
29813;DHT22;16707;48.106;11.548;2023-03-30T13:45:41;11.80;99.90
29813;DHT22;16707;48.106;11.548;2023-03-30T13:48:23;11.80;99.90
29813;DHT22;16707;48.106;11.548;2023-03-30T13:50:56;11.80;99.90
29813;DHT22;16707;48.106;11.548;2023-03-30T13:53:27;11.80;99.90
29813;DHT22;16707;48.106;11.548;2023-03-30T13:55:57;11.80;99.90
29813;DHT22;16707;48.106;11.548;2023-03-30T13:58:27;11.80;99.90
29813;DHT22;16707;48.106;11.548;2023-03-30T14:00:58;11.90;99.90
29813;DHT22;16707;48.106;11.548;2023-03-30T14:03:35;11.90;99.90
29813;DHT22;16707;48.106;11.548;2023-03-30T14:06:06;11.90;99.90
29813;DHT22;16707;48.106;11.548;2023-03-30T14:08:35;11.80;99.90
29813;DHT22;16707;48.106;11.548;2023-03-30T14:11:07;11.80;99.90
29813;DHT22;16707;48.106;11.548;2023-03-30T14:13:37;11.80;99.90
29813;DHT22;16707;48.106;11.548;2023-03-30T14:16:05;11.80;99.90
29813;DHT22;16707;48.106;11.548;2023-03-30T14:18:32;11.70;99.90
29813;DHT22;16707;48.106;11.548;2023-03-30T14:21:08;11.70;99.90
29813;DHT22;16707;48.106;11.548;2023-03-30T14:23:37;11.70;99.90
29813;DHT22;16707;48.106;11.548;2023-03-30T14:26:11;11.70;99.90
29813;DHT22;16707;48.106;11.548;2023-03-30T14:28:39;11.80;99.90
29813;DHT22;16707;48.106;11.548;2023-03-30T14:31:12;11.90;99.90
29813;DHT22;16707;48.106;11.548;2023-03-30T14:33:41;11.90;99.90
29813;DHT22;16707;48.106;11.548;2023-03-30T14:36:13;11.90;99.90
29813;DHT22;16707;48.106;11.548;2023-03-30T14:38:45;11.90;99.90
29813;DHT22;16707;48.106;11.548;2023-03-30T14:41:14;11.90;99.90
29813;DHT22;16707;48.106;11.548;2023-03-30T14:43:51;12.00;99.90
29813;DHT22;16707;48.106;11.548;2023-03-30T14:46:19;12.00;99.90
29813;DHT22;16707;48.106;11.548;2023-03-30T14:48:49;12.10;99.90
29813;DHT22;16707;48.106;11.548;2023-03-30T14:51:26;12.20;99.90
29813;DHT22;16707;48.106;11.548;2023-03-30T14:54:05;12.20;99.90
29813;DHT22;16707;48.106;11.548;2023-03-30T14:56:35;12.40;99.90
29813;DHT22;16707;48.106;11.548;2023-03-30T14:59:10;12.50;99.90
29813;DHT22;16707;48.106;11.548;2023-03-30T15:01:38;12.70;99.90
29813;DHT22;16707;48.106;11.548;2023-03-30T15:04:11;12.80;99.90
29813;DHT22;16707;48.106;11.548;2023-03-30T15:06:46;13.00;99.90
29813;DHT22;16707;48.106;11.548;2023-03-30T15:09:15;13.20;99.90
29813;DHT22;16707;48.106;11.548;2023-03-30T15:11:44;13.20;99.90
29813;DHT22;16707;48.106;11.548;2023-03-30T15:14:14;13.20;99.90
29813;DHT22;16707;48.106;11.548;2023-03-30T15:16:47;13.00;99.90
29813;DHT22;16707;48.106;11.548;2023-03-30T15:19:25;12.80;99.90
29813;DHT22;16707;48.106;11.548;2023-03-30T15:22:03;12.70;99.90
29813;DHT22;16707;48.106;11.548;2023-03-30T15:24:31;12.60;99.90
29813;DHT22;16707;48.106;11.548;2023-03-30T15:27:04;12.50;99.90
29813;DHT22;16707;48.106;11.548;2023-03-30T15:29:32;12.60;99.90
29813;DHT22;16707;48.106;11.548;2023-03-30T15:32:19;12.40;99.90
29813;DHT22;16707;48.106;11.548;2023-03-30T15:35:04;12.40;99.90
29813;DHT22;16707;48.106;11.548;2023-03-30T15:37:35;12.50;99.90
29813;DHT22;16707;48.106;11.548;2023-03-30T15:40:28;12.40;99.90
29813;DHT22;16707;48.106;11.548;2023-03-30T15:43:12;12.30;99.90
29813;DHT22;16707;48.106;11.548;2023-03-30T15:45:56;12.30;99.90
29813;DHT22;16707;48.106;11.548;2023-03-30T15:48:29;12.30;99.90
29813;DHT22;16707;48.106;11.548;2023-03-30T15:51:02;12.30;99.90
29813;DHT22;16707;48.106;11.548;2023-03-30T15:53:42;12.30;99.90
29813;DHT22;16707;48.106;11.548;2023-03-30T15:56:18;12.40;99.90
29813;DHT22;16707;48.106;11.548;2023-03-30T15:58:47;12.50;99.90
29813;DHT22;16707;48.106;11.548;2023-03-30T16:01:17;12.60;99.90
29813;DHT22;16707;48.106;11.548;2023-03-30T16:03:53;12.50;99.90
29813;DHT22;16707;48.106;11.548;2023-03-30T16:06:21;12.50;99.90
29813;DHT22;16707;48.106;11.548;2023-03-30T16:08:51;12.40;99.90